sensor_id;sensor_type;location;lat;lon;timestamp;P1;durP1;ratioP1;P2;durP2;ratioP2
56267;SDS011;42175;46.930;9.532;2023-05-10T00:01:37;8.35;;;1.60;;
56267;SDS011;42175;46.930;9.532;2023-05-10T00:04:03;2.70;;;1.20;;
56267;SDS011;42175;46.930;9.532;2023-05-10T00:06:29;2.38;;;1.30;;
56267;SDS011;42175;46.930;9.532;2023-05-10T00:08:55;2.53;;;1.40;;
56267;SDS011;42175;46.930;9.532;2023-05-10T00:11:21;6.97;;;1.63;;
56267;SDS011;42175;46.930;9.532;2023-05-10T00:13:46;3.08;;;1.60;;
56267;SDS011;42175;46.930;9.532;2023-05-10T00:16:12;3.05;;;1.27;;
56267;SDS011;42175;46.930;9.532;2023-05-10T00:18:38;2.78;;;1.33;;
56267;SDS011;42175;46.930;9.532;2023-05-10T00:21:05;3.55;;;1.50;;
56267;SDS011;42175;46.930;9.532;2023-05-10T00:23:31;3.65;;;1.40;;
56267;SDS011;42175;46.930;9.532;2023-05-10T00:25:56;4.80;;;1.65;;
56267;SDS011;42175;46.930;9.532;2023-05-10T00:28:22;2.85;;;1.30;;
56267;SDS011;42175;46.930;9.532;2023-05-10T00:30:48;3.28;;;1.65;;
56267;SDS011;42175;46.930;9.532;2023-05-10T00:33:14;2.72;;;1.30;;
56267;SDS011;42175;46.930;9.532;2023-05-10T00:35:39;3.60;;;1.13;;
56267;SDS011;42175;46.930;9.532;2023-05-10T00:38:05;2.47;;;1.27;;
56267;SDS011;42175;46.930;9.532;2023-05-10T00:40:31;4.93;;;1.55;;
56267;SDS011;42175;46.930;9.532;2023-05-10T00:42:57;2.10;;;1.38;;
56267;SDS011;42175;46.930;9.532;2023-05-10T00:45:23;5.10;;;1.30;;
56267;SDS011;42175;46.930;9.532;2023-05-10T00:47:50;3.08;;;1.85;;
56267;SDS011;42175;46.930;9.532;2023-05-10T00:50:20;4.07;;;1.20;;
56267;SDS011;42175;46.930;9.532;2023-05-10T00:52:46;2.88;;;1.17;;
56267;SDS011;42175;46.930;9.532;2023-05-10T00:55:12;2.42;;;1.25;;
56267;SDS011;42175;46.930;9.532;2023-05-10T00:57:38;5.15;;;1.48;;
56267;SDS011;42175;46.930;9.532;2023-05-10T01:00:05;3.55;;;1.27;;
56267;SDS011;42175;46.930;9.532;2023-05-10T01:02:31;1.85;;;1.13;;
56267;SDS011;42175;46.930;9.532;2023-05-10T01:04:59;4.70;;;1.30;;
56267;SDS011;42175;46.930;9.532;2023-05-10T01:07:27;4.22;;;1.27;;
56267;SDS011;42175;46.930;9.532;2023-05-10T01:09:53;3.85;;;1.42;;
56267;SDS011;42175;46.930;9.532;2023-05-10T01:12:18;3.00;;;1.25;;
56267;SDS011;42175;46.930;9.532;2023-05-10T01:14:44;3.00;;;1.05;;
56267;SDS011;42175;46.930;9.532;2023-05-10T01:17:10;2.88;;;1.30;;
56267;SDS011;42175;46.930;9.532;2023-05-10T01:19:38;4.53;;;1.10;;
56267;SDS011;42175;46.930;9.532;2023-05-10T01:22:20;3.63;;;1.20;;
56267;SDS011;42175;46.930;9.532;2023-05-10T01:33:55;1.48;;;0.90;;
56267;SDS011;42175;46.930;9.532;2023-05-10T01:36:49;3.80;;;1.10;;
56267;SDS011;42175;46.930;9.532;2023-05-10T01:39:35;5.35;;;1.73;;
56267;SDS011;42175;46.930;9.532;2023-05-10T01:42:14;5.35;;;1.13;;
56267;SDS011;42175;46.930;9.532;2023-05-10T01:44:58;1.60;;;0.85;;
56267;SDS011;42175;46.930;9.532;2023-05-10T01:49:56;3.50;;;1.10;;
56267;SDS011;42175;46.930;9.532;2023-05-10T01:52:30;6.07;;;1.40;;
56267;SDS011;42175;46.930;9.532;2023-05-10T01:55:07;2.03;;;1.08;;
56267;SDS011;42175;46.930;9.532;2023-05-10T01:57:35;2.35;;;1.00;;
56267;SDS011;42175;46.930;9.532;2023-05-10T02:00:04;2.45;;;0.85;;
56267;SDS011;42175;46.930;9.532;2023-05-10T02:02:33;2.00;;;0.88;;
56267;SDS011;42175;46.930;9.532;2023-05-10T02:05:03;3.38;;;1.10;;
56267;SDS011;42175;46.930;9.532;2023-05-10T02:07:31;6.68;;;1.00;;
56267;SDS011;42175;46.930;9.532;2023-05-10T02:09:59;7.72;;;0.90;;
56267;SDS011;42175;46.930;9.532;2023-05-10T02:12:26;4.10;;;1.00;;
56267;SDS011;42175;46.930;9.532;2023-05-10T02:14:54;2.10;;;1.10;;
56267;SDS011;42175;46.930;9.532;2023-05-10T02:17:20;5.80;;;0.90;;
56267;SDS011;42175;46.930;9.532;2023-05-10T02:19:48;7.63;;;0.95;;
56267;SDS011;42175;46.930;9.532;2023-05-10T02:22:14;4.70;;;1.33;;
56267;SDS011;42175;46.930;9.532;2023-05-10T02:24:41;8.98;;;1.00;;
56267;SDS011;42175;46.930;9.532;2023-05-10T02:27:08;4.72;;;0.70;;
56267;SDS011;42175;46.930;9.532;2023-05-10T02:29:35;2.30;;;0.75;;
56267;SDS011;42175;46.930;9.532;2023-05-10T02:32:03;4.43;;;1.10;;
56267;SDS011;42175;46.930;9.532;2023-05-10T02:34:30;6.18;;;1.10;;
56267;SDS011;42175;46.930;9.532;2023-05-10T02:36:56;1.63;;;0.90;;
56267;SDS011;42175;46.930;9.532;2023-05-10T02:39:24;7.03;;;0.93;;
56267;SDS011;42175;46.930;9.532;2023-05-10T02:41:51;3.17;;;0.90;;
56267;SDS011;42175;46.930;9.532;2023-05-10T02:44:18;1.73;;;0.70;;
56267;SDS011;42175;46.930;9.532;2023-05-10T02:46:45;4.53;;;0.80;;
56267;SDS011;42175;46.930;9.532;2023-05-10T02:49:11;3.03;;;0.90;;
56267;SDS011;42175;46.930;9.532;2023-05-10T02:51:40;2.50;;;1.10;;
56267;SDS011;42175;46.930;9.532;2023-05-10T02:54:12;4.47;;;0.80;;
56267;SDS011;42175;46.930;9.532;2023-05-10T02:56:47;2.13;;;0.88;;
56267;SDS011;42175;46.930;9.532;2023-05-10T02:59:19;3.22;;;0.70;;
56267;SDS011;42175;46.930;9.532;2023-05-10T03:01:45;2.03;;;1.00;;
56267;SDS011;42175;46.930;9.532;2023-05-10T03:04:11;3.10;;;0.65;;
56267;SDS011;42175;46.930;9.532;2023-05-10T03:06:36;1.58;;;0.88;;
56267;SDS011;42175;46.930;9.532;2023-05-10T03:09:02;1.13;;;0.70;;
56267;SDS011;42175;46.930;9.532;2023-05-10T03:17:11;2.08;;;0.77;;
56267;SDS011;42175;46.930;9.532;2023-05-10T03:19:48;1.02;;;0.88;;
56267;SDS011;42175;46.930;9.532;2023-05-10T03:22:31;4.10;;;0.70;;
56267;SDS011;42175;46.930;9.532;2023-05-10T03:25:00;0.82;;;0.60;;
56267;SDS011;42175;46.930;9.532;2023-05-10T03:27:30;3.42;;;0.80;;
56267;SDS011;42175;46.930;9.532;2023-05-10T03:29:57;2.42;;;1.00;;
56267;SDS011;42175;46.930;9.532;2023-05-10T03:32:23;2.08;;;1.00;;
56267;SDS011;42175;46.930;9.532;2023-05-10T03:34:49;3.35;;;0.80;;
56267;SDS011;42175;46.930;9.532;2023-05-10T03:37:15;2.10;;;0.80;;
56267;SDS011;42175;46.930;9.532;2023-05-10T03:39:41;1.48;;;0.70;;
56267;SDS011;42175;46.930;9.532;2023-05-10T03:42:06;2.13;;;0.80;;
56267;SDS011;42175;46.930;9.532;2023-05-10T03:44:32;1.40;;;0.65;;
56267;SDS011;42175;46.930;9.532;2023-05-10T03:47:01;2.55;;;0.70;;
56267;SDS011;42175;46.930;9.532;2023-05-10T03:49:27;3.28;;;0.73;;
56267;SDS011;42175;46.930;9.532;2023-05-10T03:51:53;1.17;;;0.70;;
56267;SDS011;42175;46.930;9.532;2023-05-10T03:54:18;2.97;;;0.60;;
56267;SDS011;42175;46.930;9.532;2023-05-10T03:56:45;3.65;;;0.80;;
56267;SDS011;42175;46.930;9.532;2023-05-10T03:59:13;2.53;;;0.90;;
56267;SDS011;42175;46.930;9.532;2023-05-10T04:01:38;2.33;;;0.80;;
56267;SDS011;42175;46.930;9.532;2023-05-10T04:04:04;2.85;;;0.82;;
56267;SDS011;42175;46.930;9.532;2023-05-10T04:06:30;12.93;;;1.42;;
56267;SDS011;42175;46.930;9.532;2023-05-10T04:08:56;1.42;;;0.60;;
56267;SDS011;42175;46.930;9.532;2023-05-10T04:11:25;4.97;;;0.70;;
56267;SDS011;42175;46.930;9.532;2023-05-10T04:13:50;2.17;;;0.90;;
56267;SDS011;42175;46.930;9.532;2023-05-10T04:16:16;3.38;;;0.93;;
56267;SDS011;42175;46.930;9.532;2023-05-10T04:18:42;1.55;;;0.73;;
56267;SDS011;42175;46.930;9.532;2023-05-10T04:21:11;1.60;;;0.70;;
56267;SDS011;42175;46.930;9.532;2023-05-10T04:23:38;1.27;;;0.70;;
56267;SDS011;42175;46.930;9.532;2023-05-10T04:26:04;1.83;;;0.70;;
56267;SDS011;42175;46.930;9.532;2023-05-10T04:28:30;0.77;;;0.68;;
56267;SDS011;42175;46.930;9.532;2023-05-10T04:31:04;1.25;;;0.80;;
56267;SDS011;42175;46.930;9.532;2023-05-10T04:33:32;1.75;;;0.95;;
56267;SDS011;42175;46.930;9.532;2023-05-10T04:35:58;6.32;;;1.25;;
56267;SDS011;42175;46.930;9.532;2023-05-10T04:38:24;2.10;;;0.70;;
56267;SDS011;42175;46.930;9.532;2023-05-10T04:40:50;5.28;;;0.63;;
56267;SDS011;42175;46.930;9.532;2023-05-10T04:43:15;2.05;;;0.70;;
56267;SDS011;42175;46.930;9.532;2023-05-10T04:45:41;1.15;;;0.68;;
56267;SDS011;42175;46.930;9.532;2023-05-10T04:48:07;3.45;;;0.80;;
56267;SDS011;42175;46.930;9.532;2023-05-10T04:50:32;2.15;;;0.80;;
56267;SDS011;42175;46.930;9.532;2023-05-10T04:52:58;1.02;;;0.63;;
56267;SDS011;42175;46.930;9.532;2023-05-10T04:55:24;1.20;;;0.70;;
56267;SDS011;42175;46.930;9.532;2023-05-10T04:57:51;3.45;;;0.85;;
56267;SDS011;42175;46.930;9.532;2023-05-10T05:00:17;4.88;;;0.85;;
56267;SDS011;42175;46.930;9.532;2023-05-10T05:02:43;1.70;;;0.70;;
56267;SDS011;42175;46.930;9.532;2023-05-10T05:05:10;1.10;;;0.80;;
56267;SDS011;42175;46.930;9.532;2023-05-10T05:07:36;0.90;;;0.70;;
56267;SDS011;42175;46.930;9.532;2023-05-10T05:10:04;0.90;;;0.60;;
56267;SDS011;42175;46.930;9.532;2023-05-10T05:12:33;1.10;;;0.70;;
56267;SDS011;42175;46.930;9.532;2023-05-10T05:15:00;2.17;;;0.73;;
56267;SDS011;42175;46.930;9.532;2023-05-10T05:17:26;3.58;;;0.65;;
56267;SDS011;42175;46.930;9.532;2023-05-10T05:19:51;2.63;;;0.50;;
56267;SDS011;42175;46.930;9.532;2023-05-10T05:22:17;1.40;;;0.80;;
56267;SDS011;42175;46.930;9.532;2023-05-10T05:24:44;3.70;;;0.77;;
56267;SDS011;42175;46.930;9.532;2023-05-10T05:27:10;3.00;;;0.65;;
56267;SDS011;42175;46.930;9.532;2023-05-10T05:29:36;1.00;;;0.73;;
56267;SDS011;42175;46.930;9.532;2023-05-10T05:32:02;1.52;;;0.68;;
56267;SDS011;42175;46.930;9.532;2023-05-10T05:34:28;1.73;;;0.70;;
56267;SDS011;42175;46.930;9.532;2023-05-10T05:36:53;3.22;;;0.70;;
56267;SDS011;42175;46.930;9.532;2023-05-10T05:39:19;1.63;;;0.68;;
56267;SDS011;42175;46.930;9.532;2023-05-10T05:41:46;5.70;;;0.77;;
56267;SDS011;42175;46.930;9.532;2023-05-10T05:44:12;6.53;;;1.45;;
56267;SDS011;42175;46.930;9.532;2023-05-10T05:46:37;4.78;;;0.70;;
56267;SDS011;42175;46.930;9.532;2023-05-10T05:49:03;1.17;;;0.70;;
56267;SDS011;42175;46.930;9.532;2023-05-10T05:51:29;0.63;;;0.50;;
56267;SDS011;42175;46.930;9.532;2023-05-10T05:53:55;0.63;;;0.50;;
56267;SDS011;42175;46.930;9.532;2023-05-10T05:56:21;0.80;;;0.60;;
56267;SDS011;42175;46.930;9.532;2023-05-10T05:58:50;3.78;;;0.70;;
56267;SDS011;42175;46.930;9.532;2023-05-10T06:01:16;0.82;;;0.70;;
56267;SDS011;42175;46.930;9.532;2023-05-10T06:03:41;5.47;;;0.73;;
56267;SDS011;42175;46.930;9.532;2023-05-10T06:06:07;2.08;;;0.90;;
56267;SDS011;42175;46.930;9.532;2023-05-10T06:08:33;1.58;;;0.90;;
56267;SDS011;42175;46.930;9.532;2023-05-10T06:10:59;2.13;;;0.85;;
56267;SDS011;42175;46.930;9.532;2023-05-10T06:13:25;1.10;;;0.80;;
56267;SDS011;42175;46.930;9.532;2023-05-10T06:15:57;3.97;;;0.80;;
56267;SDS011;42175;46.930;9.532;2023-05-10T06:18:23;2.30;;;1.23;;
56267;SDS011;42175;46.930;9.532;2023-05-10T06:20:49;1.77;;;0.73;;
56267;SDS011;42175;46.930;9.532;2023-05-10T06:23:15;5.88;;;1.15;;
56267;SDS011;42175;46.930;9.532;2023-05-10T06:25:40;5.82;;;1.10;;
56267;SDS011;42175;46.930;9.532;2023-05-10T06:28:06;7.32;;;1.38;;
56267;SDS011;42175;46.930;9.532;2023-05-10T06:30:32;9.45;;;1.58;;
56267;SDS011;42175;46.930;9.532;2023-05-10T06:32:58;6.95;;;1.38;;
56267;SDS011;42175;46.930;9.532;2023-05-10T06:35:23;8.35;;;1.35;;
56267;SDS011;42175;46.930;9.532;2023-05-10T06:37:49;9.57;;;1.40;;
56267;SDS011;42175;46.930;9.532;2023-05-10T06:40:15;5.50;;;1.60;;
56267;SDS011;42175;46.930;9.532;2023-05-10T06:42:41;7.00;;;1.92;;
56267;SDS011;42175;46.930;9.532;2023-05-10T06:45:07;12.18;;;4.75;;
56267;SDS011;42175;46.930;9.532;2023-05-10T06:47:34;25.27;;;13.88;;
56267;SDS011;42175;46.930;9.532;2023-05-10T06:49:59;49.50;;;25.63;;
56267;SDS011;42175;46.930;9.532;2023-05-10T06:52:25;49.20;;;29.05;;
56267;SDS011;42175;46.930;9.532;2023-05-10T06:54:51;54.42;;;27.90;;
56267;SDS011;42175;46.930;9.532;2023-05-10T06:57:16;41.63;;;24.05;;
56267;SDS011;42175;46.930;9.532;2023-05-10T06:59:43;38.42;;;21.50;;
56267;SDS011;42175;46.930;9.532;2023-05-10T07:02:08;37.13;;;20.92;;
56267;SDS011;42175;46.930;9.532;2023-05-10T07:04:34;38.13;;;19.52;;
56267;SDS011;42175;46.930;9.532;2023-05-10T07:07:00;31.23;;;17.50;;
56267;SDS011;42175;46.930;9.532;2023-05-10T07:09:25;30.65;;;15.02;;
56267;SDS011;42175;46.930;9.532;2023-05-10T07:11:51;34.47;;;15.48;;
56267;SDS011;42175;46.930;9.532;2023-05-10T07:14:17;28.08;;;13.18;;
56267;SDS011;42175;46.930;9.532;2023-05-10T07:16:42;20.15;;;12.02;;
56267;SDS011;42175;46.930;9.532;2023-05-10T07:19:09;22.27;;;11.35;;
56267;SDS011;42175;46.930;9.532;2023-05-10T07:21:35;24.38;;;12.40;;
56267;SDS011;42175;46.930;9.532;2023-05-10T07:24:02;23.98;;;10.52;;
56267;SDS011;42175;46.930;9.532;2023-05-10T07:26:28;19.33;;;8.85;;
56267;SDS011;42175;46.930;9.532;2023-05-10T07:28:54;19.60;;;7.63;;
56267;SDS011;42175;46.930;9.532;2023-05-10T07:31:19;18.20;;;7.45;;
56267;SDS011;42175;46.930;9.532;2023-05-10T07:33:45;17.40;;;7.38;;
56267;SDS011;42175;46.930;9.532;2023-05-10T07:36:11;16.95;;;6.30;;
56267;SDS011;42175;46.930;9.532;2023-05-10T07:38:37;15.60;;;5.57;;
56267;SDS011;42175;46.930;9.532;2023-05-10T07:41:03;11.50;;;4.93;;
56267;SDS011;42175;46.930;9.532;2023-05-10T07:43:29;16.38;;;5.00;;
56267;SDS011;42175;46.930;9.532;2023-05-10T07:45:54;11.30;;;5.40;;
56267;SDS011;42175;46.930;9.532;2023-05-10T07:48:22;9.25;;;3.92;;
56267;SDS011;42175;46.930;9.532;2023-05-10T07:50:48;16.58;;;4.88;;
56267;SDS011;42175;46.930;9.532;2023-05-10T07:53:13;8.10;;;3.47;;
56267;SDS011;42175;46.930;9.532;2023-05-10T07:55:39;14.48;;;3.53;;
56267;SDS011;42175;46.930;9.532;2023-05-10T07:58:05;10.65;;;2.97;;
56267;SDS011;42175;46.930;9.532;2023-05-10T08:00:31;11.45;;;3.53;;
56267;SDS011;42175;46.930;9.532;2023-05-10T08:02:56;12.75;;;2.88;;
56267;SDS011;42175;46.930;9.532;2023-05-10T08:05:22;11.23;;;3.28;;
56267;SDS011;42175;46.930;9.532;2023-05-10T08:07:48;10.30;;;2.63;;
56267;SDS011;42175;46.930;9.532;2023-05-10T08:10:13;7.20;;;2.35;;
56267;SDS011;42175;46.930;9.532;2023-05-10T08:12:39;8.05;;;2.72;;
56267;SDS011;42175;46.930;9.532;2023-05-10T08:15:05;10.13;;;2.50;;
56267;SDS011;42175;46.930;9.532;2023-05-10T08:17:32;7.00;;;2.28;;
56267;SDS011;42175;46.930;9.532;2023-05-10T08:19:57;9.63;;;2.60;;
56267;SDS011;42175;46.930;9.532;2023-05-10T08:22:23;6.22;;;2.38;;
56267;SDS011;42175;46.930;9.532;2023-05-10T08:24:49;4.95;;;1.88;;
56267;SDS011;42175;46.930;9.532;2023-05-10T08:27:14;8.93;;;2.45;;
56267;SDS011;42175;46.930;9.532;2023-05-10T08:29:40;7.35;;;2.05;;
56267;SDS011;42175;46.930;9.532;2023-05-10T08:32:05;7.55;;;1.83;;
56267;SDS011;42175;46.930;9.532;2023-05-10T08:34:31;6.78;;;1.90;;
56267;SDS011;42175;46.930;9.532;2023-05-10T08:36:57;9.43;;;2.30;;
56267;SDS011;42175;46.930;9.532;2023-05-10T08:39:22;11.13;;;2.33;;
56267;SDS011;42175;46.930;9.532;2023-05-10T08:41:48;14.35;;;3.25;;
56267;SDS011;42175;46.930;9.532;2023-05-10T08:44:18;7.82;;;2.00;;
56267;SDS011;42175;46.930;9.532;2023-05-10T08:46:45;6.40;;;1.70;;
56267;SDS011;42175;46.930;9.532;2023-05-10T08:49:16;4.63;;;2.05;;
56267;SDS011;42175;46.930;9.532;2023-05-10T08:51:44;8.13;;;2.22;;
56267;SDS011;42175;46.930;9.532;2023-05-10T08:54:16;10.87;;;2.10;;
56267;SDS011;42175;46.930;9.532;2023-05-10T08:56:42;7.60;;;2.28;;
56267;SDS011;42175;46.930;9.532;2023-05-10T08:59:08;11.82;;;2.22;;
56267;SDS011;42175;46.930;9.532;2023-05-10T09:01:35;3.47;;;0.80;;
56267;SDS011;42175;46.930;9.532;2023-05-10T09:04:02;13.98;;;1.58;;
56267;SDS011;42175;46.930;9.532;2023-05-10T09:06:29;4.40;;;1.13;;
56267;SDS011;42175;46.930;9.532;2023-05-10T09:08:54;2.30;;;1.00;;
56267;SDS011;42175;46.930;9.532;2023-05-10T09:11:20;7.45;;;1.00;;
56267;SDS011;42175;46.930;9.532;2023-05-10T09:13:47;12.05;;;1.00;;
56267;SDS011;42175;46.930;9.532;2023-05-10T09:16:14;1.67;;;0.70;;
56267;SDS011;42175;46.930;9.532;2023-05-10T09:18:40;1.70;;;0.60;;
56267;SDS011;42175;46.930;9.532;2023-05-10T09:21:05;3.22;;;1.15;;
56267;SDS011;42175;46.930;9.532;2023-05-10T09:23:33;1.95;;;0.90;;
56267;SDS011;42175;46.930;9.532;2023-05-10T09:26:02;2.67;;;0.63;;
56267;SDS011;42175;46.930;9.532;2023-05-10T09:28:33;1.88;;;0.68;;
56267;SDS011;42175;46.930;9.532;2023-05-10T09:31:14;24.08;;;1.50;;
56267;SDS011;42175;46.930;9.532;2023-05-10T09:33:44;2.47;;;0.82;;
56267;SDS011;42175;46.930;9.532;2023-05-10T09:36:11;4.72;;;1.05;;
56267;SDS011;42175;46.930;9.532;2023-05-10T09:38:50;3.38;;;1.35;;
56267;SDS011;42175;46.930;9.532;2023-05-10T09:41:19;2.85;;;0.98;;
56267;SDS011;42175;46.930;9.532;2023-05-10T09:43:49;5.03;;;0.60;;
56267;SDS011;42175;46.930;9.532;2023-05-10T09:46:15;1.73;;;0.63;;
56267;SDS011;42175;46.930;9.532;2023-05-10T09:48:44;1.77;;;0.68;;
56267;SDS011;42175;46.930;9.532;2023-05-10T09:51:21;1.52;;;0.63;;
56267;SDS011;42175;46.930;9.532;2023-05-10T09:53:48;1.65;;;0.80;;
56267;SDS011;42175;46.930;9.532;2023-05-10T09:56:33;3.72;;;0.80;;
56267;SDS011;42175;46.930;9.532;2023-05-10T09:59:05;3.47;;;0.88;;
56267;SDS011;42175;46.930;9.532;2023-05-10T10:01:34;9.65;;;1.20;;
56267;SDS011;42175;46.930;9.532;2023-05-10T10:04:09;6.45;;;0.90;;
56267;SDS011;42175;46.930;9.532;2023-05-10T10:06:36;6.20;;;1.15;;
56267;SDS011;42175;46.930;9.532;2023-05-10T10:09:08;2.15;;;0.90;;
56267;SDS011;42175;46.930;9.532;2023-05-10T10:11:37;6.88;;;1.13;;
56267;SDS011;42175;46.930;9.532;2023-05-10T10:14:03;6.05;;;0.90;;
56267;SDS011;42175;46.930;9.532;2023-05-10T10:16:30;3.45;;;0.80;;
56267;SDS011;42175;46.930;9.532;2023-05-10T10:18:57;3.97;;;1.00;;
56267;SDS011;42175;46.930;9.532;2023-05-10T10:21:22;2.65;;;0.80;;
56267;SDS011;42175;46.930;9.532;2023-05-10T10:23:48;2.65;;;0.80;;
56267;SDS011;42175;46.930;9.532;2023-05-10T10:26:15;4.70;;;0.85;;
56267;SDS011;42175;46.930;9.532;2023-05-10T10:31:22;3.40;;;0.80;;
56267;SDS011;42175;46.930;9.532;2023-05-10T10:34:01;5.70;;;1.20;;
56267;SDS011;42175;46.930;9.532;2023-05-10T10:36:31;2.83;;;1.00;;
56267;SDS011;42175;46.930;9.532;2023-05-10T10:39:01;2.92;;;1.00;;
56267;SDS011;42175;46.930;9.532;2023-05-10T10:52:35;2.08;;;1.10;;
56267;SDS011;42175;46.930;9.532;2023-05-10T10:55:03;2.67;;;0.95;;
56267;SDS011;42175;46.930;9.532;2023-05-10T10:57:48;5.13;;;0.90;;
56267;SDS011;42175;46.930;9.532;2023-05-10T11:02:59;4.03;;;1.48;;
56267;SDS011;42175;46.930;9.532;2023-05-10T11:05:47;2.75;;;0.90;;
56267;SDS011;42175;46.930;9.532;2023-05-10T11:08:16;7.85;;;1.90;;
56267;SDS011;42175;46.930;9.532;2023-05-10T11:13:30;5.43;;;0.90;;
56267;SDS011;42175;46.930;9.532;2023-05-10T11:15:57;2.35;;;0.80;;
56267;SDS011;42175;46.930;9.532;2023-05-10T11:20:50;3.28;;;1.10;;
56267;SDS011;42175;46.930;9.532;2023-05-10T11:23:17;1.02;;;0.60;;
56267;SDS011;42175;46.930;9.532;2023-05-10T11:25:44;2.45;;;0.80;;
56267;SDS011;42175;46.930;9.532;2023-05-10T11:28:11;2.63;;;0.80;;
56267;SDS011;42175;46.930;9.532;2023-05-10T11:30:42;3.90;;;0.93;;
56267;SDS011;42175;46.930;9.532;2023-05-10T11:33:09;6.38;;;0.88;;
56267;SDS011;42175;46.930;9.532;2023-05-10T11:35:40;2.22;;;0.90;;
56267;SDS011;42175;46.930;9.532;2023-05-10T11:38:06;5.47;;;0.90;;
56267;SDS011;42175;46.930;9.532;2023-05-10T11:40:33;7.28;;;0.90;;
56267;SDS011;42175;46.930;9.532;2023-05-10T11:42:59;4.50;;;1.00;;
56267;SDS011;42175;46.930;9.532;2023-05-10T11:45:25;18.17;;;1.15;;
56267;SDS011;42175;46.930;9.532;2023-05-10T11:47:51;4.68;;;1.20;;
56267;SDS011;42175;46.930;9.532;2023-05-10T11:50:17;3.53;;;0.85;;
56267;SDS011;42175;46.930;9.532;2023-05-10T11:52:42;5.13;;;0.82;;
56267;SDS011;42175;46.930;9.532;2023-05-10T11:55:08;2.47;;;0.73;;
56267;SDS011;42175;46.930;9.532;2023-05-10T11:57:34;5.40;;;0.95;;
56267;SDS011;42175;46.930;9.532;2023-05-10T12:00:00;2.83;;;0.80;;
56267;SDS011;42175;46.930;9.532;2023-05-10T12:02:28;1.98;;;1.20;;
56267;SDS011;42175;46.930;9.532;2023-05-10T12:04:55;5.38;;;1.00;;
56267;SDS011;42175;46.930;9.532;2023-05-10T12:07:21;1.70;;;0.82;;
56267;SDS011;42175;46.930;9.532;2023-05-10T12:10:09;4.13;;;1.17;;
56267;SDS011;42175;46.930;9.532;2023-05-10T12:12:43;8.07;;;1.55;;
56267;SDS011;42175;46.930;9.532;2023-05-10T12:15:10;5.07;;;1.17;;
56267;SDS011;42175;46.930;9.532;2023-05-10T12:17:38;4.05;;;0.90;;
56267;SDS011;42175;46.930;9.532;2023-05-10T12:20:21;3.08;;;0.70;;
56267;SDS011;42175;46.930;9.532;2023-05-10T12:22:50;35.50;;;1.73;;
56267;SDS011;42175;46.930;9.532;2023-05-10T12:25:18;3.67;;;1.05;;
56267;SDS011;42175;46.930;9.532;2023-05-10T12:27:48;2.13;;;0.88;;
56267;SDS011;42175;46.930;9.532;2023-05-10T12:30:28;3.35;;;1.00;;
56267;SDS011;42175;46.930;9.532;2023-05-10T12:33:15;2.50;;;1.05;;
56267;SDS011;42175;46.930;9.532;2023-05-10T12:41:17;2.22;;;0.90;;
56267;SDS011;42175;46.930;9.532;2023-05-10T12:43:43;2.85;;;0.88;;
56267;SDS011;42175;46.930;9.532;2023-05-10T12:46:17;6.88;;;1.13;;
56267;SDS011;42175;46.930;9.532;2023-05-10T12:48:43;3.97;;;1.03;;
56267;SDS011;42175;46.930;9.532;2023-05-10T12:51:11;4.78;;;0.95;;
56267;SDS011;42175;46.930;9.532;2023-05-10T12:53:40;6.03;;;1.25;;
56267;SDS011;42175;46.930;9.532;2023-05-10T12:56:06;4.32;;;1.08;;
56267;SDS011;42175;46.930;9.532;2023-05-10T12:58:32;1.63;;;1.00;;
56267;SDS011;42175;46.930;9.532;2023-05-10T13:00:59;5.15;;;1.10;;
56267;SDS011;42175;46.930;9.532;2023-05-10T13:03:25;4.40;;;1.00;;
56267;SDS011;42175;46.930;9.532;2023-05-10T13:05:50;2.85;;;1.13;;
56267;SDS011;42175;46.930;9.532;2023-05-10T13:08:16;9.50;;;1.35;;
56267;SDS011;42175;46.930;9.532;2023-05-10T13:10:42;2.50;;;1.20;;
56267;SDS011;42175;46.930;9.532;2023-05-10T13:13:08;4.18;;;1.27;;
56267;SDS011;42175;46.930;9.532;2023-05-10T13:15:33;5.80;;;1.65;;
56267;SDS011;42175;46.930;9.532;2023-05-10T13:17:59;7.00;;;1.33;;
56267;SDS011;42175;46.930;9.532;2023-05-10T13:20:25;5.10;;;1.63;;
56267;SDS011;42175;46.930;9.532;2023-05-10T13:22:52;5.88;;;2.35;;
56267;SDS011;42175;46.930;9.532;2023-05-10T13:25:17;3.22;;;1.45;;
56267;SDS011;42175;46.930;9.532;2023-05-10T13:27:43;5.47;;;2.22;;
56267;SDS011;42175;46.930;9.532;2023-05-10T13:30:09;7.63;;;1.63;;
56267;SDS011;42175;46.930;9.532;2023-05-10T13:32:36;6.30;;;1.70;;
56267;SDS011;42175;46.930;9.532;2023-05-10T13:35:02;5.75;;;1.50;;
56267;SDS011;42175;46.930;9.532;2023-05-10T13:37:29;3.45;;;1.23;;
56267;SDS011;42175;46.930;9.532;2023-05-10T13:39:55;4.25;;;1.50;;
56267;SDS011;42175;46.930;9.532;2023-05-10T13:42:21;3.08;;;1.60;;
56267;SDS011;42175;46.930;9.532;2023-05-10T13:44:48;6.97;;;1.60;;
56267;SDS011;42175;46.930;9.532;2023-05-10T13:47:14;5.43;;;1.70;;
56267;SDS011;42175;46.930;9.532;2023-05-10T13:49:40;6.32;;;1.75;;
56267;SDS011;42175;46.930;9.532;2023-05-10T13:52:06;5.13;;;1.50;;
56267;SDS011;42175;46.930;9.532;2023-05-10T13:54:35;4.25;;;1.52;;
56267;SDS011;42175;46.930;9.532;2023-05-10T13:57:02;6.25;;;1.35;;
56267;SDS011;42175;46.930;9.532;2023-05-10T13:59:28;6.88;;;1.25;;
56267;SDS011;42175;46.930;9.532;2023-05-10T14:01:53;4.82;;;1.52;;
56267;SDS011;42175;46.930;9.532;2023-05-10T14:04:19;3.08;;;1.33;;
56267;SDS011;42175;46.930;9.532;2023-05-10T14:06:45;5.47;;;1.52;;
56267;SDS011;42175;46.930;9.532;2023-05-10T14:09:11;2.70;;;1.17;;
56267;SDS011;42175;46.930;9.532;2023-05-10T14:11:37;2.47;;;1.40;;
56267;SDS011;42175;46.930;9.532;2023-05-10T14:14:06;4.45;;;1.40;;
56267;SDS011;42175;46.930;9.532;2023-05-10T14:16:32;5.35;;;1.40;;
56267;SDS011;42175;46.930;9.532;2023-05-10T14:18:58;8.27;;;2.42;;
56267;SDS011;42175;46.930;9.532;2023-05-10T14:21:24;5.90;;;1.38;;
56267;SDS011;42175;46.930;9.532;2023-05-10T14:23:49;2.25;;;1.30;;
56267;SDS011;42175;46.930;9.532;2023-05-10T14:26:15;2.80;;;1.05;;
56267;SDS011;42175;46.930;9.532;2023-05-10T14:28:41;6.25;;;1.88;;
56267;SDS011;42175;46.930;9.532;2023-05-10T14:31:06;7.15;;;1.30;;
56267;SDS011;42175;46.930;9.532;2023-05-10T14:33:32;5.53;;;1.33;;
56267;SDS011;42175;46.930;9.532;2023-05-10T14:35:58;9.02;;;1.40;;
56267;SDS011;42175;46.930;9.532;2023-05-10T14:38:24;17.58;;;2.45;;
56267;SDS011;42175;46.930;9.532;2023-05-10T14:40:51;5.18;;;1.40;;
56267;SDS011;42175;46.930;9.532;2023-05-10T14:43:17;5.55;;;1.20;;
56267;SDS011;42175;46.930;9.532;2023-05-10T14:45:42;15.27;;;2.15;;
56267;SDS011;42175;46.930;9.532;2023-05-10T14:48:09;8.05;;;1.48;;
56267;SDS011;42175;46.930;9.532;2023-05-10T14:50:40;8.48;;;1.52;;
56267;SDS011;42175;46.930;9.532;2023-05-10T14:53:06;12.10;;;1.88;;
56267;SDS011;42175;46.930;9.532;2023-05-10T14:55:31;5.65;;;1.40;;
56267;SDS011;42175;46.930;9.532;2023-05-10T14:57:57;5.22;;;1.10;;
56267;SDS011;42175;46.930;9.532;2023-05-10T15:00:23;11.95;;;1.98;;
56267;SDS011;42175;46.930;9.532;2023-05-10T15:02:49;5.20;;;1.00;;
56267;SDS011;42175;46.930;9.532;2023-05-10T15:05:15;3.00;;;1.20;;
56267;SDS011;42175;46.930;9.532;2023-05-10T15:07:40;5.90;;;1.33;;
56267;SDS011;42175;46.930;9.532;2023-05-10T15:10:08;3.55;;;1.17;;
56267;SDS011;42175;46.930;9.532;2023-05-10T15:12:34;4.78;;;1.38;;
56267;SDS011;42175;46.930;9.532;2023-05-10T15:15:00;5.57;;;1.00;;
56267;SDS011;42175;46.930;9.532;2023-05-10T15:17:25;3.33;;;1.20;;
56267;SDS011;42175;46.930;9.532;2023-05-10T15:19:51;2.90;;;1.00;;
56267;SDS011;42175;46.930;9.532;2023-05-10T15:22:17;5.90;;;1.45;;
56267;SDS011;42175;46.930;9.532;2023-05-10T15:24:43;3.88;;;1.30;;
56267;SDS011;42175;46.930;9.532;2023-05-10T15:27:08;5.72;;;1.20;;
56267;SDS011;42175;46.930;9.532;2023-05-10T15:29:34;7.10;;;1.23;;
56267;SDS011;42175;46.930;9.532;2023-05-10T15:32:00;7.65;;;1.20;;